createdAt,value
2018-02-18T00:01:53.448Z,1.34
2018-02-18T00:02:53.432Z,1.29
2018-02-18T00:03:54.175Z,1.34
2018-02-18T00:04:53.616Z,1.26
2018-02-18T00:05:53.557Z,1.30
2018-02-18T00:06:54.510Z,1.23
2018-02-18T00:07:55.888Z,1.29
2018-02-18T00:08:53.373Z,1.30
2018-02-18T00:09:53.363Z,1.33
2018-02-18T00:10:53.351Z,1.12
2018-02-18T00:11:53.343Z,1.15
2018-02-18T00:12:55.790Z,1.16
2018-02-18T00:13:53.824Z,1.11
2018-02-18T00:14:53.360Z,1.05
2018-02-18T00:15:55.165Z,1.02
2018-02-18T00:16:53.290Z,1.14
2018-02-18T00:17:54.884Z,1.11
2018-02-18T00:18:56.972Z,1.15
2018-02-18T00:19:54.354Z,1.29
2018-02-18T00:20:57.144Z,1.27
2018-02-18T00:22:01.147Z,1.24
2018-02-18T00:22:58.230Z,1.18
2018-02-18T00:23:53.630Z,1.27
2018-02-18T00:24:53.355Z,1.29
2018-02-18T00:25:53.195Z,1.26
2018-02-18T00:26:53.183Z,1.29
2018-02-18T00:27:53.177Z,1.29
2018-02-18T00:28:53.160Z,1.30
2018-02-18T00:29:53.151Z,1.40
2018-02-18T00:30:53.448Z,1.36
2018-02-18T00:31:53.532Z,1.30
2018-02-18T00:32:53.116Z,1.30
2018-02-18T00:33:53.107Z,1.32
2018-02-18T00:34:53.100Z,1.37
2018-02-18T00:35:53.088Z,1.33
2018-02-18T00:36:53.321Z,1.36
2018-02-18T00:37:53.066Z,1.41
2018-02-18T00:38:53.055Z,1.40
2018-02-18T00:39:53.042Z,1.42
2018-02-18T00:40:53.033Z,1.34
2018-02-18T00:41:53.025Z,1.36
2018-02-18T00:42:53.265Z,1.36
2018-02-18T00:43:53.005Z,1.33
2018-02-18T00:44:52.989Z,1.32
2018-02-18T00:45:52.983Z,1.32
2018-02-18T00:46:52.969Z,1.32
2018-02-18T00:47:52.962Z,1.24
2018-02-18T00:48:53.199Z,1.30
2018-02-18T00:49:52.936Z,1.29
2018-02-18T00:50:52.924Z,1.27
2018-02-18T00:51:52.913Z,1.32
2018-02-18T00:52:52.948Z,1.33
2018-02-18T00:53:52.895Z,1.33
2018-02-18T00:54:53.136Z,1.23
2018-02-18T00:55:52.868Z,1.26
2018-02-18T00:56:52.907Z,1.26
2018-02-18T00:57:52.852Z,1.33
2018-02-18T00:58:52.841Z,1.30
2018-02-18T00:59:52.827Z,1.32
2018-02-18T01:00:53.066Z,1.32
2018-02-18T01:01:52.808Z,1.30
2018-02-18T01:02:52.791Z,1.27
2018-02-18T01:03:52.790Z,1.18
2018-02-18T01:04:52.774Z,1.12
2018-02-18T01:05:52.761Z,0.96
2018-02-18T01:06:53.101Z,1.00
2018-02-18T01:07:52.740Z,1.04
2018-02-18T01:08:52.730Z,0.93
2018-02-18T01:09:52.718Z,1.00
2018-02-18T01:10:52.713Z,1.04
2018-02-18T01:11:52.696Z,1.09
2018-02-18T01:12:52.934Z,1.16
2018-02-18T01:13:52.677Z,1.11
2018-02-18T01:14:52.665Z,1.18
2018-02-18T01:15:52.654Z,1.20
2018-02-18T01:16:52.641Z,1.20
2018-02-18T01:17:52.627Z,1.20
2018-02-18T01:18:52.867Z,1.18
2018-02-18T01:19:52.610Z,1.15
2018-02-18T01:20:52.610Z,1.15
2018-02-18T01:21:52.584Z,1.15
2018-02-18T01:22:52.585Z,1.08
2018-02-18T01:23:52.575Z,1.20
2018-02-18T01:24:52.905Z,1.14
2018-02-18T01:25:52.545Z,1.20
2018-02-18T01:26:52.537Z,1.15
2018-02-18T01:27:52.522Z,1.14
2018-02-18T01:28:52.562Z,1.24
2018-02-18T01:29:52.503Z,1.14
2018-02-18T01:30:52.738Z,1.05
2018-02-18T01:31:52.480Z,1.18
2018-02-18T01:32:52.468Z,1.14
2018-02-18T01:33:52.458Z,1.06
2018-02-18T01:34:52.443Z,1.09
2018-02-18T01:35:52.437Z,1.06
2018-02-18T01:36:52.679Z,1.04
2018-02-18T01:37:52.413Z,1.12
2018-02-18T01:38:52.399Z,1.15
2018-02-18T01:39:52.393Z,1.18
2018-02-18T01:40:52.376Z,1.05
2018-02-18T01:41:52.369Z,1.11
2018-02-18T01:42:52.608Z,1.02
2018-02-18T01:43:52.347Z,0.98
2018-02-18T01:44:52.337Z,1.02
2018-02-18T01:45:52.328Z,1.02
2018-02-18T01:46:52.320Z,0.97
2018-02-18T01:47:52.304Z,0.91
2018-02-18T01:48:52.290Z,0.93
2018-02-18T01:49:52.283Z,1.00
2018-02-18T01:50:52.266Z,0.94
2018-02-18T01:51:52.260Z,0.96
2018-02-18T01:52:52.249Z,0.96
2018-02-18T01:53:52.232Z,0.96
2018-02-18T01:54:52.472Z,0.96
2018-02-18T01:55:52.214Z,0.94
2018-02-18T01:56:52.205Z,0.94
2018-02-18T01:57:52.196Z,0.93
2018-02-18T01:58:52.184Z,0.98
2018-02-18T01:59:52.173Z,1.00
2018-02-18T02:00:52.157Z,0.94
2018-02-18T02:01:52.156Z,0.91
2018-02-18T02:02:52.142Z,0.91
2018-02-18T02:03:52.131Z,0.98
2018-02-18T02:04:52.117Z,0.97
2018-02-18T02:05:52.104Z,1.05
2018-02-18T02:06:52.343Z,0.93
2018-02-18T02:07:52.081Z,0.94
2018-02-18T02:08:52.070Z,1.00
2018-02-18T02:09:52.062Z,0.96
2018-02-18T02:10:52.056Z,0.88
2018-02-18T02:11:52.038Z,0.91
2018-02-18T02:12:52.034Z,0.98
2018-02-18T02:13:52.018Z,0.94
2018-02-18T02:14:52.005Z,0.79
2018-02-18T02:15:51.998Z,0.75
2018-02-18T02:16:51.989Z,0.79
2018-02-18T02:17:51.969Z,0.75
2018-02-18T02:18:52.066Z,0.83
2018-02-18T02:19:51.945Z,0.83
2018-02-18T02:20:51.938Z,0.80
2018-02-18T02:21:51.927Z,0.84
2018-02-18T02:22:51.920Z,0.83
2018-02-18T02:23:51.906Z,0.75
2018-02-18T02:24:51.890Z,0.83
2018-02-18T02:25:51.887Z,0.83
2018-02-18T02:26:51.870Z,0.76
2018-02-18T02:27:51.864Z,0.80
2018-02-18T02:28:51.849Z,0.73
2018-02-18T02:29:51.837Z,0.75
2018-02-18T02:30:51.824Z,0.75
2018-02-18T02:31:51.814Z,0.76
2018-02-18T02:32:51.809Z,0.78
2018-02-18T02:33:51.788Z,0.78
2018-02-18T02:34:51.781Z,0.70
2018-02-18T02:35:51.770Z,0.68
2018-02-18T02:36:51.860Z,0.76
2018-02-18T02:37:51.748Z,0.69
2018-02-18T02:38:51.736Z,0.72
2018-02-18T02:39:51.722Z,0.69
2018-02-18T02:40:51.712Z,0.62
2018-02-18T02:41:51.704Z,0.66
2018-02-18T02:42:51.692Z,0.66
2018-02-18T02:43:51.680Z,0.73
2018-02-18T02:44:51.668Z,0.76
2018-02-18T02:45:51.660Z,0.75
2018-02-18T02:46:51.642Z,0.69
2018-02-18T02:47:51.635Z,0.68
2018-02-18T02:48:51.625Z,0.72
2018-02-18T02:49:51.611Z,0.68
2018-02-18T02:50:51.599Z,0.66
2018-02-18T02:51:51.602Z,0.62
2018-02-18T02:52:51.570Z,0.68
2018-02-18T02:53:51.567Z,0.57
2018-02-18T02:54:51.551Z,0.55
2018-02-18T02:55:51.541Z,0.53
2018-02-18T02:56:51.525Z,0.46
2018-02-18T02:57:51.520Z,0.50
2018-02-18T02:58:51.511Z,0.44
2018-02-18T02:59:51.496Z,0.39
2018-02-18T03:00:51.484Z,0.46
2018-02-18T03:01:51.472Z,0.46
2018-02-18T03:02:51.459Z,0.42
2018-02-18T03:03:51.449Z,0.57
2018-02-18T03:04:51.442Z,0.42
2018-02-18T03:05:51.421Z,0.44
2018-02-18T03:06:51.409Z,0.42
2018-02-18T03:07:51.401Z,0.47
2018-02-18T03:08:51.389Z,0.58
2018-02-18T03:09:51.380Z,0.51
2018-02-18T03:10:51.369Z,0.50
2018-02-18T03:11:51.351Z,0.58
2018-02-18T03:12:51.339Z,0.55
2018-02-18T03:13:51.332Z,0.50
2018-02-18T03:14:51.326Z,0.51
2018-02-18T03:15:51.315Z,0.46
2018-02-18T03:16:51.299Z,0.51
2018-02-18T03:17:51.287Z,0.50
2018-02-18T03:18:51.272Z,0.49
2018-02-18T03:19:51.266Z,0.44
2018-02-18T03:20:51.256Z,0.46
2018-02-18T03:21:51.235Z,0.47
2018-02-18T03:22:51.228Z,0.57
2018-02-18T03:23:51.215Z,0.44
2018-02-18T03:24:51.203Z,0.42
2018-02-18T03:25:51.195Z,0.44
2018-02-18T03:26:51.186Z,0.44
2018-02-18T03:27:51.170Z,0.32
2018-02-18T03:28:51.153Z,0.33
2018-02-18T03:29:51.146Z,0.29
2018-02-18T03:30:51.136Z,0.26
2018-02-18T03:31:51.123Z,0.32
2018-02-18T03:32:51.115Z,0.35
2018-02-18T03:33:51.094Z,0.31
2018-02-18T03:34:51.083Z,0.44
2018-02-18T03:35:51.082Z,0.39
2018-02-18T03:36:51.067Z,0.28
2018-02-18T03:37:51.052Z,0.33
2018-02-18T03:38:51.037Z,0.35
2018-02-18T03:39:51.027Z,0.32
2018-02-18T03:40:51.016Z,0.32
2018-02-18T03:41:51.004Z,0.24
2018-02-18T03:42:51.297Z,0.14
2018-02-18T03:43:50.976Z,0.10
2018-02-18T03:44:50.963Z,0.15
2018-02-18T03:45:50.962Z,0.17
2018-02-18T03:46:50.948Z,0.10
2018-02-18T03:47:50.938Z,0.28
2018-02-18T03:48:50.925Z,0.21
2018-02-18T03:49:50.908Z,0.18
2018-02-18T03:50:50.895Z,0.21
2018-02-18T03:51:50.891Z,0.23
2018-02-18T03:52:50.873Z,0.13
2018-02-18T03:53:50.862Z,0.14
2018-02-18T03:54:50.844Z,0.21
2018-02-18T03:55:50.835Z,0.18
2018-02-18T03:56:50.825Z,0.23
2018-02-18T03:57:50.818Z,0.15
2018-02-18T03:58:50.803Z,0.28
2018-02-18T03:59:50.788Z,0.23
2018-02-18T04:00:50.776Z,0.21
2018-02-18T04:01:50.768Z,0.20
2018-02-18T04:02:50.760Z,0.18
2018-02-18T04:03:50.742Z,0.08
2018-02-18T04:04:50.743Z,0.11
2018-02-18T04:05:50.721Z,0.08
2018-02-18T04:06:50.702Z,0.08
2018-02-18T04:07:50.695Z,0.13
2018-02-18T04:08:50.686Z,0.07
2018-02-18T04:09:50.684Z,0.02
2018-02-18T04:10:50.659Z,0.04
2018-02-18T04:11:50.648Z,0.02
2018-02-18T04:12:50.633Z,0.02
2018-02-18T04:13:50.621Z,0.03
2018-02-18T04:14:50.608Z,-0.03
2018-02-18T04:15:50.602Z,-0.03
2018-02-18T04:16:50.590Z,-0.10
2018-02-18T04:17:50.569Z,-0.04
2018-02-18T04:18:50.562Z,0.00
2018-02-18T04:19:50.548Z,-0.03
2018-02-18T04:20:50.569Z,-0.01
2018-02-18T04:21:50.531Z,-0.04
2018-02-18T04:22:50.515Z,-0.04
2018-02-18T04:23:50.496Z,-0.14
2018-02-18T04:24:50.489Z,0.00
2018-02-18T04:25:50.475Z,-0.04
2018-02-18T04:26:50.465Z,-0.10
2018-02-18T04:27:50.458Z,-0.08
2018-02-18T04:28:50.441Z,-0.03
2018-02-18T04:29:50.429Z,0.02
2018-02-18T04:30:50.418Z,-0.05
2018-02-18T04:31:50.404Z,-0.01
2018-02-18T04:32:50.394Z,-0.08
2018-02-18T04:33:50.379Z,-0.14
2018-02-18T04:34:50.366Z,0.00
2018-02-18T04:35:50.351Z,-0.18
2018-02-18T04:36:50.340Z,-0.10
2018-02-18T04:37:50.329Z,-0.11
2018-02-18T04:38:50.316Z,-0.01
2018-02-18T04:39:50.302Z,-0.10
2018-02-18T04:40:50.291Z,-0.11
2018-02-18T04:41:50.282Z,-0.19
2018-02-18T04:42:50.269Z,-0.19
2018-02-18T04:43:50.255Z,-0.11
2018-02-18T04:44:50.242Z,-0.21
2018-02-18T04:45:50.229Z,-0.16
2018-02-18T04:46:50.216Z,-0.11
2018-02-18T04:47:50.207Z,-0.16
2018-02-18T04:48:50.196Z,-0.10
2018-02-18T04:49:50.182Z,-0.15
2018-02-18T04:50:50.169Z,-0.11
2018-02-18T04:51:50.155Z,-0.15
2018-02-18T04:52:50.144Z,-0.07
2018-02-18T04:53:50.134Z,-0.19
2018-02-18T04:54:50.125Z,-0.11
2018-02-18T04:55:50.103Z,-0.15
2018-02-18T04:56:50.093Z,-0.16
2018-02-18T04:57:50.088Z,-0.19
2018-02-18T04:58:50.073Z,-0.16
2018-02-18T04:59:50.062Z,-0.19
2018-02-18T05:00:50.046Z,-0.18
2018-02-18T05:01:50.030Z,-0.25
2018-02-18T05:02:50.019Z,-0.19
2018-02-18T05:03:50.013Z,-0.26
2018-02-18T05:04:50.002Z,-0.19
2018-02-18T05:05:49.982Z,-0.08
2018-02-18T05:06:49.968Z,-0.10
2018-02-18T05:07:50.027Z,-0.18
2018-02-18T05:08:49.941Z,-0.11
2018-02-18T05:09:49.935Z,-0.10
2018-02-18T05:10:49.925Z,-0.11
2018-02-18T05:11:49.909Z,-0.21
2018-02-18T05:12:49.898Z,-0.23
2018-02-18T05:13:49.888Z,-0.19
2018-02-18T05:14:49.880Z,-0.21
2018-02-18T05:15:49.861Z,-0.21
2018-02-18T05:16:49.856Z,-0.18
2018-02-18T05:17:49.833Z,-0.25
2018-02-18T05:18:49.823Z,-0.23
2018-02-18T05:19:49.824Z,-0.07
2018-02-18T05:20:49.800Z,-0.23
2018-02-18T05:21:49.785Z,-0.25
2018-02-18T05:22:49.778Z,-0.23
2018-02-18T05:23:49.759Z,-0.25
2018-02-18T05:24:49.766Z,-0.15
2018-02-18T05:25:49.744Z,-0.21
2018-02-18T05:26:49.729Z,-0.23
2018-02-18T05:27:49.712Z,-0.26
2018-02-18T05:28:49.703Z,-0.15
2018-02-18T05:29:49.694Z,-0.23
2018-02-18T05:30:49.684Z,-0.21
2018-02-18T05:31:49.670Z,-0.19
2018-02-18T05:32:49.656Z,-0.16
2018-02-18T05:33:49.644Z,-0.10
2018-02-18T05:34:49.628Z,-0.10
2018-02-18T05:35:49.621Z,-0.21
2018-02-18T05:36:49.605Z,-0.31
2018-02-18T05:37:49.591Z,-0.36
2018-02-18T05:38:49.580Z,-0.37
2018-02-18T05:39:49.564Z,-0.46
2018-02-18T05:40:49.580Z,-0.33
2018-02-18T05:41:49.542Z,-0.37
2018-02-18T05:42:49.530Z,-0.39
2018-02-18T05:43:49.515Z,-0.28
2018-02-18T05:44:49.499Z,-0.28
2018-02-18T05:45:49.493Z,-0.23
2018-02-18T05:46:49.485Z,-0.25
2018-02-18T05:47:49.471Z,-0.28
2018-02-18T05:48:49.460Z,-0.34
2018-02-18T05:49:49.441Z,-0.31
2018-02-18T05:50:49.427Z,-0.33
2018-02-18T05:51:49.424Z,-0.37
2018-02-18T05:52:49.406Z,-0.37
2018-02-18T05:53:49.395Z,-0.39
2018-02-18T05:54:49.379Z,-0.28
2018-02-18T05:55:49.364Z,-0.36
2018-02-18T05:56:49.352Z,-0.31
2018-02-18T05:57:49.342Z,-0.39
2018-02-18T05:58:49.337Z,-0.39
2018-02-18T05:59:49.318Z,-0.31
2018-02-18T06:00:49.306Z,-0.28
2018-02-18T06:01:49.295Z,-0.29
2018-02-18T06:02:49.284Z,-0.37
2018-02-18T06:03:49.270Z,-0.25
2018-02-18T06:04:49.261Z,-0.39
2018-02-18T06:05:49.243Z,-0.31
2018-02-18T06:06:49.227Z,-0.39
2018-02-18T06:07:49.224Z,-0.42
2018-02-18T06:08:49.207Z,-0.36
2018-02-18T06:09:49.195Z,-0.44
2018-02-18T06:10:49.185Z,-0.37
2018-02-18T06:11:49.172Z,-0.43
2018-02-18T06:12:49.156Z,-0.42
2018-02-18T06:13:49.151Z,-0.40
2018-02-18T06:14:49.137Z,-0.31
2018-02-18T06:15:49.150Z,-0.40
2018-02-18T06:16:49.102Z,-0.40
2018-02-18T06:17:49.098Z,-0.34
2018-02-18T06:18:49.095Z,-0.43
2018-02-18T06:19:49.073Z,-0.46
2018-02-18T06:20:49.060Z,-0.47
2018-02-18T06:21:49.043Z,-0.51
2018-02-18T06:22:49.032Z,-0.43
2018-02-18T06:23:49.020Z,-0.44
2018-02-18T06:24:49.008Z,-0.40
2018-02-18T06:25:48.998Z,-0.42
2018-02-18T06:26:48.987Z,-0.33
2018-02-18T06:27:48.971Z,-0.31
2018-02-18T06:28:48.964Z,-0.37
2018-02-18T06:29:48.943Z,-0.37
2018-02-18T06:30:48.935Z,-0.33
2018-02-18T06:31:48.927Z,-0.36
2018-02-18T06:32:48.911Z,-0.31
2018-02-18T06:33:48.898Z,-0.34
2018-02-18T06:34:48.884Z,-0.33
2018-02-18T06:35:48.868Z,-0.31
2018-02-18T06:36:48.861Z,-0.37
2018-02-18T06:37:48.856Z,-0.29
2018-02-18T06:38:48.847Z,-0.34
2018-02-18T06:39:48.818Z,-0.25
2018-02-18T06:40:48.812Z,-0.33
2018-02-18T06:41:48.796Z,-0.29
2018-02-18T06:42:48.790Z,-0.26
2018-02-18T06:43:48.774Z,-0.28
2018-02-18T06:44:48.763Z,-0.26
2018-02-18T06:45:48.745Z,-0.28
2018-02-18T06:46:48.733Z,-0.23
2018-02-18T06:47:48.729Z,-0.21
2018-02-18T06:48:48.711Z,-0.18
2018-02-18T06:49:48.694Z,-0.21
2018-02-18T06:50:48.683Z,-0.23
2018-02-18T06:51:48.671Z,-0.25
2018-02-18T06:52:48.659Z,-0.18
2018-02-18T06:53:48.653Z,-0.19
2018-02-18T06:54:48.640Z,-0.19
2018-02-18T06:55:48.624Z,-0.11
2018-02-18T06:56:48.610Z,-0.14
2018-02-18T06:57:48.601Z,-0.10
2018-02-18T06:58:48.626Z,-0.08
2018-02-18T06:59:48.580Z,-0.16
2018-02-18T07:00:48.563Z,-0.21
2018-02-18T07:01:48.545Z,-0.14
2018-02-18T07:02:48.542Z,-0.18
2018-02-18T07:03:48.528Z,-0.18
2018-02-18T07:04:48.514Z,-0.18
2018-02-18T07:05:48.500Z,-0.21
2018-02-18T07:06:48.493Z,-0.07
2018-02-18T07:07:48.473Z,-0.14
2018-02-18T07:08:48.463Z,-0.03
2018-02-18T07:09:48.453Z,-0.01
2018-02-18T07:10:48.443Z,-0.07
2018-02-18T07:11:48.432Z,-0.11
2018-02-18T07:12:48.412Z,-0.08
2018-02-18T07:13:48.405Z,-0.11
2018-02-18T07:14:48.393Z,-0.15
2018-02-18T07:15:48.381Z,-0.16
2018-02-18T07:16:48.372Z,-0.01
2018-02-18T07:17:48.353Z,-0.01
2018-02-18T07:18:48.342Z,0.03
2018-02-18T07:19:48.338Z,0.03
2018-02-18T07:20:48.324Z,0.03
2018-02-18T07:21:48.302Z,0.02
2018-02-18T07:22:48.299Z,-0.01
2018-02-18T07:23:48.282Z,-0.07
2018-02-18T07:24:48.272Z,-0.07
2018-02-18T07:25:48.261Z,-0.07
2018-02-18T07:26:48.248Z,-0.01
2018-02-18T07:27:48.237Z,-0.10
2018-02-18T07:28:48.217Z,-0.07
2018-02-18T07:29:48.210Z,0.02
2018-02-18T07:30:51.605Z,0.07
2018-02-18T07:31:48.188Z,0.10
2018-02-18T07:32:48.178Z,0.13
2018-02-18T07:33:48.459Z,0.10
2018-02-18T07:34:49.198Z,0.18
2018-02-18T07:35:48.389Z,0.18
2018-02-18T07:36:48.124Z,0.18
2018-02-18T07:37:48.160Z,0.21
2018-02-18T07:38:48.097Z,0.14
2018-02-18T07:39:48.090Z,0.17
2018-02-18T07:40:48.078Z,0.18
2018-02-18T07:41:52.074Z,0.20
2018-02-18T07:42:48.058Z,0.20
2018-02-18T07:43:48.038Z,0.20
2018-02-18T07:44:48.027Z,0.21
2018-02-18T07:45:48.018Z,0.21
2018-02-18T07:46:48.006Z,0.11
2018-02-18T07:47:47.998Z,0.18
2018-02-18T07:48:47.987Z,0.20
2018-02-18T07:49:47.969Z,0.29
2018-02-18T07:50:47.955Z,0.33
2018-02-18T07:51:47.947Z,0.36
2018-02-18T07:52:47.932Z,0.33
2018-02-18T07:53:47.926Z,0.42
2018-02-18T07:54:47.903Z,0.53
2018-02-18T07:55:47.890Z,0.60
2018-02-18T07:56:47.876Z,0.58
2018-02-18T07:57:47.931Z,0.60
2018-02-18T07:58:47.857Z,0.42
2018-02-18T07:59:47.900Z,0.51
2018-02-18T08:00:47.879Z,0.50
2018-02-18T08:01:47.821Z,0.51
2018-02-18T08:02:47.808Z,0.62
2018-02-18T08:03:47.799Z,0.62
2018-02-18T08:04:47.787Z,0.61
2018-02-18T08:05:47.874Z,0.62
2018-02-18T08:06:47.759Z,0.53
2018-02-18T08:07:47.747Z,0.66
2018-02-18T08:08:47.740Z,0.62
2018-02-18T08:09:47.722Z,0.68
2018-02-18T08:10:47.707Z,0.76
2018-02-18T08:11:47.750Z,0.76
2018-02-18T08:12:47.684Z,0.87
2018-02-18T08:13:47.678Z,0.94
2018-02-18T08:14:47.666Z,0.91
2018-02-18T08:15:47.702Z,0.98
2018-02-18T08:16:47.641Z,1.02
2018-02-18T08:17:47.733Z,1.04
2018-02-18T08:18:47.617Z,1.08
2018-02-18T08:19:47.709Z,1.11
2018-02-18T08:20:47.595Z,1.08
2018-02-18T08:21:47.573Z,1.12
2018-02-18T08:22:47.563Z,1.05
2018-02-18T08:23:47.607Z,1.11
2018-02-18T08:24:47.543Z,1.29
2018-02-18T08:25:47.532Z,1.27
2018-02-18T08:26:47.519Z,1.40
2018-02-18T08:27:47.557Z,1.52
2018-02-18T08:28:47.493Z,1.54
2018-02-18T08:29:47.491Z,1.52
2018-02-18T08:30:47.579Z,1.58
2018-02-18T08:31:47.467Z,1.55
2018-02-18T08:32:47.452Z,1.69
2018-02-18T08:33:47.485Z,1.68
2018-02-18T08:34:47.423Z,1.70
2018-02-18T08:35:47.631Z,1.69
2018-02-18T08:36:47.399Z,1.72
2018-02-18T08:37:47.495Z,1.83
2018-02-18T08:38:47.392Z,1.79
2018-02-18T08:39:47.370Z,1.79
2018-02-18T08:40:47.405Z,2.02
2018-02-18T08:41:47.347Z,2.06
2018-02-18T08:42:47.340Z,2.10
2018-02-18T08:43:47.324Z,2.18
2018-02-18T08:44:47.365Z,2.28
2018-02-18T08:45:47.301Z,2.39
2018-02-18T08:46:47.287Z,2.38
2018-02-18T08:47:47.283Z,2.36
2018-02-18T08:48:47.367Z,2.41
2018-02-18T08:49:47.357Z,2.49
2018-02-18T08:50:47.344Z,2.49
2018-02-18T08:51:47.288Z,2.45
2018-02-18T08:52:47.224Z,2.57
2018-02-18T08:53:47.317Z,2.54
2018-02-18T08:54:47.206Z,2.64
2018-02-18T08:55:47.188Z,2.67
2018-02-18T08:56:47.184Z,2.67
2018-02-18T08:57:47.278Z,2.82
2018-02-18T08:58:47.162Z,2.85
2018-02-18T08:59:47.153Z,2.79
2018-02-18T09:00:47.143Z,2.66
2018-02-18T09:01:47.129Z,2.78
2018-02-18T09:02:47.219Z,2.93
2018-02-18T09:03:47.112Z,3.05
2018-02-18T09:04:47.099Z,2.90
2018-02-18T09:05:47.086Z,2.87
2018-02-18T09:06:47.076Z,3.14
2018-02-18T09:07:47.066Z,3.24
2018-02-18T09:08:47.052Z,3.23
2018-02-18T09:09:47.048Z,3.29
2018-02-18T09:10:47.044Z,3.32
2018-02-18T09:11:47.024Z,3.40
2018-02-18T09:12:47.017Z,3.33
2018-02-18T09:13:47.017Z,3.36
2018-02-18T09:14:47.012Z,3.39
2018-02-18T09:15:46.992Z,3.42
2018-02-18T09:16:46.980Z,3.29
2018-02-18T09:17:46.968Z,3.39
2018-02-18T09:18:46.953Z,3.48
2018-02-18T09:19:46.946Z,3.52
2018-02-18T09:20:46.936Z,3.65
2018-02-18T09:21:46.928Z,3.66
2018-02-18T09:22:46.916Z,3.60
2018-02-18T09:23:46.904Z,3.66
2018-02-18T09:24:46.899Z,3.68
2018-02-18T09:25:46.889Z,3.66
2018-02-18T09:26:46.880Z,3.83
2018-02-18T09:27:46.862Z,3.94
2018-02-18T09:28:46.856Z,3.93
2018-02-18T09:29:46.848Z,3.83
2018-02-18T09:30:46.841Z,3.75
2018-02-18T09:31:46.830Z,3.83
2018-02-18T09:32:46.820Z,3.93
2018-02-18T09:33:46.806Z,4.12
2018-02-18T09:34:46.796Z,4.22
2018-02-18T09:35:46.791Z,4.33
2018-02-18T09:36:46.782Z,4.30
2018-02-18T09:37:46.765Z,4.48
2018-02-18T09:38:46.761Z,4.51
2018-02-18T09:39:46.750Z,4.55
2018-02-18T09:40:46.764Z,4.88
2018-02-18T09:41:46.735Z,5.21
2018-02-18T09:42:46.729Z,5.38
2018-02-18T09:43:46.716Z,5.49
2018-02-18T09:44:46.700Z,5.45
2018-02-18T09:45:46.697Z,5.48
2018-02-18T09:47:29.105Z,5.68
2018-02-18T09:54:21.481Z,5.24
2018-02-18T09:55:21.478Z,5.15
2018-02-18T09:57:13.892Z,5.06
2018-02-18T10:00:44.568Z,5.54
2018-02-18T10:08:04.239Z,4.75
2018-02-18T10:09:04.232Z,4.69
2018-02-18T10:10:04.224Z,4.51
2018-02-18T10:21:24.434Z,5.24
2018-02-18T10:22:20.395Z,5.13
2018-02-18T10:24:02.781Z,5.38
2018-02-18T10:25:02.781Z,5.30
2018-02-18T10:26:02.770Z,5.38
2018-02-18T10:27:02.757Z,5.56
2018-02-18T10:28:02.755Z,5.72
2018-02-18T10:29:02.740Z,5.78
2018-02-18T10:30:02.731Z,5.81
2018-02-18T10:31:02.726Z,5.75
2018-02-18T10:32:02.769Z,5.85
2018-02-18T10:33:02.704Z,5.91
2018-02-18T10:34:02.702Z,6.03
2018-02-18T10:35:02.686Z,6.06
2018-02-18T10:36:02.678Z,5.86
2018-02-18T10:37:02.674Z,5.91
2018-02-18T10:38:02.665Z,5.91
2018-02-18T10:39:02.654Z,6.12
2018-02-18T10:40:02.646Z,6.08
2018-02-18T10:41:02.642Z,6.09
2018-02-18T10:42:02.640Z,6.25
2018-02-18T10:43:02.631Z,6.34
2018-02-18T10:44:02.620Z,6.19
2018-02-18T10:45:03.112Z,6.21
2018-02-18T10:46:02.599Z,6.00
2018-02-18T10:47:02.597Z,5.86
2018-02-18T10:48:02.586Z,6.12
2018-02-18T10:49:02.574Z,6.14
2018-02-18T10:50:02.570Z,6.11
2018-02-18T10:51:02.560Z,6.27
2018-02-18T10:52:02.556Z,6.31
2018-02-18T10:53:03.153Z,6.56
2018-02-18T10:54:02.545Z,6.59
2018-02-18T10:55:03.280Z,6.55
2018-02-18T10:56:02.527Z,6.61
2018-02-18T10:57:02.517Z,6.59
2018-02-18T10:58:02.510Z,6.54
2018-02-18T10:59:02.499Z,6.55
2018-02-18T11:00:03.542Z,6.54
2018-02-18T11:01:02.479Z,6.41
2018-02-18T11:02:02.475Z,6.51
2018-02-18T11:03:02.572Z,6.59
2018-02-18T11:22:47.647Z,6.91
2018-02-18T11:23:47.646Z,6.88
2018-02-18T11:24:47.636Z,6.98
2018-02-18T11:25:50.253Z,6.87
2018-02-18T11:28:22.655Z,6.85
2018-02-18T11:29:22.451Z,6.87
2018-02-18T11:30:22.441Z,6.88
2018-02-18T11:31:22.429Z,6.91
2018-02-18T11:33:59.929Z,7.07
2018-02-18T11:35:03.408Z,7.09
2018-02-18T11:35:59.963Z,7.24
2018-02-18T11:36:59.908Z,7.35
2018-02-18T11:38:03.944Z,7.34
2018-02-18T11:40:34.728Z,7.46
2018-02-18T11:43:07.231Z,7.34
2018-02-18T11:47:20.309Z,7.49
2018-02-18T11:48:20.312Z,7.52
2018-02-18T11:49:20.302Z,7.53
2018-02-18T11:55:40.831Z,7.92
2018-02-18T11:58:45.716Z,8.01
2018-02-18T12:08:18.079Z,8.79
2018-02-18T12:09:57.060Z,8.65
2018-02-18T12:13:47.062Z,9.26
2018-02-18T12:16:19.178Z,9.40
2018-02-18T12:18:06.590Z,9.50
2018-02-18T12:19:06.593Z,9.48
2018-02-18T12:20:06.589Z,9.42
2018-02-18T12:21:07.589Z,9.50
2018-02-18T12:22:06.581Z,9.72
2018-02-18T12:24:04.390Z,9.96
2018-02-18T12:25:04.392Z,10.08
2018-02-18T12:26:04.387Z,9.96
2018-02-18T12:28:04.379Z,10.04
2018-02-18T12:29:04.379Z,10.33
2018-02-18T12:30:04.370Z,10.55
2018-02-18T12:31:04.366Z,10.63
2018-02-18T12:32:07.395Z,10.89
2018-02-18T12:33:05.177Z,10.91
2018-02-18T12:34:04.360Z,11.18
2018-02-18T12:37:02.678Z,10.05
2018-02-18T12:37:59.253Z,10.02
2018-02-18T12:38:59.251Z,10.07
2018-02-18T12:39:59.247Z,10.02
2018-02-18T12:40:59.456Z,9.89
2018-02-18T12:41:59.248Z,9.96
2018-02-18T12:43:01.867Z,10.12
2018-02-18T12:43:59.254Z,10.45
2018-02-18T12:44:59.255Z,10.40
2018-02-18T12:45:59.249Z,10.55
2018-02-18T12:46:59.253Z,10.52
2018-02-18T12:47:59.252Z,10.56
2018-02-18T12:48:59.356Z,10.59
2018-02-18T12:49:59.258Z,10.60
2018-02-18T12:50:59.261Z,10.66
2018-02-18T12:51:59.257Z,10.52
2018-02-18T12:52:59.261Z,10.40
2018-02-18T12:53:59.265Z,9.72
2018-02-18T12:54:59.282Z,10.01
2018-02-18T12:55:59.273Z,10.14
2018-02-18T12:56:59.274Z,10.33
2018-02-18T12:57:59.268Z,10.60
2018-02-18T12:58:59.271Z,10.60
2018-02-18T12:59:59.279Z,10.61
2018-02-18T13:00:59.280Z,10.26
2018-02-18T13:01:59.274Z,10.27
2018-02-18T13:02:59.281Z,10.60
2018-02-18T13:03:59.280Z,10.30
2018-02-18T13:04:59.284Z,10.02
2018-02-18T13:05:59.289Z,10.14
2018-02-18T13:06:59.542Z,10.40
2018-02-18T13:07:59.287Z,10.38
2018-02-18T13:08:59.289Z,10.51
2018-02-18T13:09:59.291Z,10.42
2018-02-18T13:10:59.292Z,10.41
2018-02-18T13:11:59.292Z,10.05
2018-02-18T13:13:41.956Z,10.02
2018-02-18T13:14:41.714Z,10.33
2018-02-18T13:15:41.715Z,10.17
2018-02-18T13:16:41.709Z,10.25
2018-02-18T13:17:41.715Z,10.32
2018-02-18T13:18:41.710Z,10.45
2018-02-18T13:19:41.958Z,10.02
2018-02-18T13:20:41.714Z,9.87
2018-02-18T13:21:41.715Z,9.74
2018-02-18T13:22:41.709Z,10.04
2018-02-18T13:23:41.712Z,10.15
2018-02-18T13:24:41.708Z,10.52
2018-02-18T13:25:41.961Z,10.61
2018-02-18T13:26:41.715Z,10.86
2018-02-18T13:27:41.716Z,11.11
2018-02-18T13:28:41.711Z,11.28
2018-02-18T13:29:41.712Z,11.27
2018-02-18T13:30:41.717Z,10.76
2018-02-18T13:31:42.023Z,10.42
2018-02-18T13:32:41.759Z,10.15
2018-02-18T13:33:41.823Z,10.08
2018-02-18T13:34:41.716Z,9.90
2018-02-18T13:35:41.717Z,9.93
2018-02-18T13:36:41.722Z,10.12
2018-02-18T13:37:42.023Z,10.02
2018-02-18T13:38:41.715Z,10.02
2018-02-18T13:39:41.720Z,9.87
2018-02-18T13:40:41.716Z,9.93
2018-02-18T13:41:41.717Z,10.08
2018-02-18T13:42:41.729Z,10.20
2018-02-18T13:43:42.069Z,10.02
2018-02-18T13:44:41.715Z,9.94
2018-02-18T13:51:45.573Z,9.56
2018-02-18T13:56:06.369Z,9.53
2018-02-18T14:01:45.543Z,8.76
2018-02-18T14:02:45.398Z,8.71
2018-02-18T18:00:29.272Z,5.30
2018-02-18T18:36:32.050Z,4.32
2018-02-18T18:56:39.539Z,4.51
2018-02-18T18:59:29.201Z,4.50
2018-02-18T19:00:26.406Z,4.54
2018-02-18T19:01:24.676Z,4.54
2018-02-18T19:05:24.645Z,4.54
2018-02-18T19:06:24.646Z,4.50
2018-02-18T19:07:24.731Z,4.51
2018-02-18T19:08:24.665Z,4.47
2018-02-18T19:09:24.609Z,4.42
2018-02-18T19:10:25.804Z,4.50
2018-02-18T19:11:24.896Z,4.41
2018-02-18T19:12:24.584Z,4.42
2018-02-18T19:13:24.576Z,4.42
2018-02-18T19:14:24.562Z,4.47
2018-02-18T19:15:24.654Z,4.45
2018-02-18T19:16:25.765Z,4.33
2018-02-18T19:17:24.897Z,4.33
2018-02-18T19:18:31.846Z,4.40
2018-02-18T19:19:25.029Z,4.47
2018-02-18T19:20:33.272Z,4.50
2018-02-18T19:21:24.504Z,4.50
2018-02-18T19:22:24.502Z,4.48
2018-02-18T19:23:24.639Z,4.44
2018-02-18T19:24:24.675Z,4.51
2018-02-18T19:25:24.724Z,4.50
2018-02-18T19:26:29.566Z,4.48
2018-02-18T19:27:35.916Z,4.47
2018-02-18T19:29:38.206Z,4.47
2018-02-18T19:31:28.676Z,4.48
2018-02-18T19:32:29.364Z,4.48
2018-02-18T19:33:24.402Z,4.44
2018-02-18T19:34:26.410Z,4.41
2018-02-18T19:35:28.741Z,4.47
2018-02-18T19:36:30.131Z,4.47
2018-02-18T19:37:24.616Z,4.40
2018-02-18T19:38:24.604Z,4.33
2018-02-18T19:39:24.349Z,4.32
2018-02-18T19:40:25.245Z,4.47
2018-02-18T19:41:24.886Z,4.36
2018-02-18T19:42:28.625Z,4.36
2018-02-18T19:43:24.366Z,4.36
2018-02-18T19:44:28.453Z,4.30
2018-02-18T19:45:24.295Z,4.42